sensor_id;sensor_type;location;lat;lon;timestamp;P1;durP1;ratioP1;P2;durP2;ratioP2
40781;SDS011;26493;51.938;7.626;2022-10-23T00:00:46;34.60;;;22.65;;
40781;SDS011;26493;51.938;7.626;2022-10-23T00:03:12;31.52;;;17.95;;
40781;SDS011;26493;51.938;7.626;2022-10-23T00:05:39;36.10;;;21.52;;
40781;SDS011;26493;51.938;7.626;2022-10-23T00:08:05;35.95;;;24.55;;
40781;SDS011;26493;51.938;7.626;2022-10-23T00:10:31;37.63;;;23.58;;
40781;SDS011;26493;51.938;7.626;2022-10-23T00:12:58;32.00;;;22.23;;
40781;SDS011;26493;51.938;7.626;2022-10-23T00:15:24;40.55;;;28.33;;
40781;SDS011;26493;51.938;7.626;2022-10-23T00:17:51;38.28;;;27.05;;
40781;SDS011;26493;51.938;7.626;2022-10-23T00:20:17;35.78;;;22.73;;
40781;SDS011;26493;51.938;7.626;2022-10-23T00:22:44;37.25;;;25.02;;
40781;SDS011;26493;51.938;7.626;2022-10-23T00:25:10;34.80;;;24.85;;
40781;SDS011;26493;51.938;7.626;2022-10-23T00:27:36;34.13;;;24.55;;
40781;SDS011;26493;51.938;7.626;2022-10-23T00:30:03;35.55;;;21.90;;
40781;SDS011;26493;51.938;7.626;2022-10-23T00:32:29;33.42;;;22.27;;
40781;SDS011;26493;51.938;7.626;2022-10-23T00:34:55;33.20;;;24.10;;
40781;SDS011;26493;51.938;7.626;2022-10-23T00:37:21;37.75;;;22.92;;
40781;SDS011;26493;51.938;7.626;2022-10-23T00:39:47;31.80;;;21.80;;
40781;SDS011;26493;51.938;7.626;2022-10-23T00:42:17;30.70;;;20.30;;
40781;SDS011;26493;51.938;7.626;2022-10-23T00:47:09;32.88;;;24.63;;
40781;SDS011;26493;51.938;7.626;2022-10-23T00:49:35;36.47;;;24.73;;
40781;SDS011;26493;51.938;7.626;2022-10-23T00:52:02;29.75;;;21.45;;
40781;SDS011;26493;51.938;7.626;2022-10-23T00:54:30;31.95;;;23.25;;
40781;SDS011;26493;51.938;7.626;2022-10-23T00:56:59;34.30;;;23.65;;
40781;SDS011;26493;51.938;7.626;2022-10-23T00:59:25;33.03;;;23.73;;
40781;SDS011;26493;51.938;7.626;2022-10-23T01:01:52;33.80;;;23.65;;
40781;SDS011;26493;51.938;7.626;2022-10-23T01:04:18;33.65;;;23.98;;
40781;SDS011;26493;51.938;7.626;2022-10-23T01:09:22;37.80;;;28.10;;
40781;SDS011;26493;51.938;7.626;2022-10-23T01:17:22;34.47;;;25.48;;
40781;SDS011;26493;51.938;7.626;2022-10-23T01:25:24;33.92;;;24.85;;
40781;SDS011;26493;51.938;7.626;2022-10-23T01:27:55;30.80;;;22.60;;
40781;SDS011;26493;51.938;7.626;2022-10-23T01:30:24;39.30;;;24.13;;
40781;SDS011;26493;51.938;7.626;2022-10-23T01:32:57;35.30;;;24.23;;
40781;SDS011;26493;51.938;7.626;2022-10-23T01:40:55;36.42;;;24.77;;
40781;SDS011;26493;51.938;7.626;2022-10-23T01:43:26;34.60;;;23.20;;
40781;SDS011;26493;51.938;7.626;2022-10-23T01:45:56;34.85;;;22.05;;
40781;SDS011;26493;51.938;7.626;2022-10-23T01:48:25;35.45;;;24.25;;
40781;SDS011;26493;51.938;7.626;2022-10-23T01:50:52;32.13;;;21.30;;
40781;SDS011;26493;51.938;7.626;2022-10-23T01:53:19;32.40;;;22.60;;
40781;SDS011;26493;51.938;7.626;2022-10-23T01:55:45;34.60;;;22.27;;
40781;SDS011;26493;51.938;7.626;2022-10-23T01:58:12;35.85;;;22.88;;
40781;SDS011;26493;51.938;7.626;2022-10-23T02:00:40;32.93;;;22.40;;
40781;SDS011;26493;51.938;7.626;2022-10-23T02:03:07;37.53;;;22.33;;
40781;SDS011;26493;51.938;7.626;2022-10-23T02:05:34;34.10;;;22.65;;
40781;SDS011;26493;51.938;7.626;2022-10-23T02:08:00;30.73;;;21.58;;
40781;SDS011;26493;51.938;7.626;2022-10-23T02:10:49;29.80;;;20.67;;
40781;SDS011;26493;51.938;7.626;2022-10-23T02:15:46;30.80;;;20.38;;
40781;SDS011;26493;51.938;7.626;2022-10-23T02:20:52;30.23;;;22.88;;
40781;SDS011;26493;51.938;7.626;2022-10-23T02:23:21;29.80;;;20.35;;
40781;SDS011;26493;51.938;7.626;2022-10-23T02:28:42;29.90;;;20.92;;
40781;SDS011;26493;51.938;7.626;2022-10-23T02:31:11;33.80;;;22.02;;
40781;SDS011;26493;51.938;7.626;2022-10-23T02:33:38;35.33;;;21.33;;
40781;SDS011;26493;51.938;7.626;2022-10-23T02:36:04;30.60;;;21.33;;
40781;SDS011;26493;51.938;7.626;2022-10-23T02:40:57;29.08;;;19.25;;
40781;SDS011;26493;51.938;7.626;2022-10-23T02:43:25;33.53;;;20.48;;
40781;SDS011;26493;51.938;7.626;2022-10-23T02:45:59;32.33;;;21.38;;
40781;SDS011;26493;51.938;7.626;2022-10-23T02:48:35;32.85;;;21.35;;
40781;SDS011;26493;51.938;7.626;2022-10-23T02:51:11;28.02;;;20.17;;
40781;SDS011;26493;51.938;7.626;2022-10-23T02:56:13;28.42;;;19.30;;
40781;SDS011;26493;51.938;7.626;2022-10-23T03:01:27;29.52;;;20.38;;
40781;SDS011;26493;51.938;7.626;2022-10-23T03:03:55;29.05;;;19.73;;
40781;SDS011;26493;51.938;7.626;2022-10-23T03:06:22;28.83;;;19.40;;
40781;SDS011;26493;51.938;7.626;2022-10-23T03:08:51;27.80;;;18.92;;
40781;SDS011;26493;51.938;7.626;2022-10-23T03:11:17;29.02;;;19.33;;
40781;SDS011;26493;51.938;7.626;2022-10-23T03:13:43;26.88;;;19.15;;
40781;SDS011;26493;51.938;7.626;2022-10-23T03:16:09;28.58;;;18.95;;
40781;SDS011;26493;51.938;7.626;2022-10-23T03:18:35;27.10;;;18.85;;
40781;SDS011;26493;51.938;7.626;2022-10-23T03:21:01;29.35;;;19.80;;
40781;SDS011;26493;51.938;7.626;2022-10-23T03:23:27;29.35;;;19.88;;
40781;SDS011;26493;51.938;7.626;2022-10-23T03:25:53;27.55;;;20.88;;
40781;SDS011;26493;51.938;7.626;2022-10-23T03:28:20;33.00;;;20.17;;
40781;SDS011;26493;51.938;7.626;2022-10-23T03:30:47;26.63;;;19.08;;
40781;SDS011;26493;51.938;7.626;2022-10-23T03:33:13;29.85;;;19.58;;
40781;SDS011;26493;51.938;7.626;2022-10-23T03:35:39;27.30;;;19.13;;
40781;SDS011;26493;51.938;7.626;2022-10-23T03:38:05;27.58;;;19.08;;
40781;SDS011;26493;51.938;7.626;2022-10-23T03:40:31;26.40;;;18.20;;
40781;SDS011;26493;51.938;7.626;2022-10-23T03:42:57;27.40;;;18.98;;
40781;SDS011;26493;51.938;7.626;2022-10-23T03:45:23;28.35;;;18.00;;
40781;SDS011;26493;51.938;7.626;2022-10-23T03:47:49;25.95;;;17.90;;
40781;SDS011;26493;51.938;7.626;2022-10-23T03:50:16;29.88;;;18.17;;
40781;SDS011;26493;51.938;7.626;2022-10-23T03:52:42;29.10;;;18.10;;
40781;SDS011;26493;51.938;7.626;2022-10-23T03:55:08;29.05;;;18.27;;
40781;SDS011;26493;51.938;7.626;2022-10-23T03:57:34;27.63;;;17.75;;
40781;SDS011;26493;51.938;7.626;2022-10-23T04:00:00;26.85;;;17.50;;
40781;SDS011;26493;51.938;7.626;2022-10-23T04:02:26;30.15;;;18.40;;
40781;SDS011;26493;51.938;7.626;2022-10-23T04:04:52;29.38;;;17.15;;
40781;SDS011;26493;51.938;7.626;2022-10-23T04:07:19;27.80;;;17.52;;
40781;SDS011;26493;51.938;7.626;2022-10-23T04:09:45;25.17;;;17.48;;
40781;SDS011;26493;51.938;7.626;2022-10-23T04:12:11;25.20;;;16.98;;
40781;SDS011;26493;51.938;7.626;2022-10-23T04:14:37;27.08;;;17.48;;
40781;SDS011;26493;51.938;7.626;2022-10-23T04:17:03;25.83;;;17.33;;
40781;SDS011;26493;51.938;7.626;2022-10-23T04:19:29;28.13;;;17.42;;
40781;SDS011;26493;51.938;7.626;2022-10-23T04:21:55;26.88;;;16.75;;
40781;SDS011;26493;51.938;7.626;2022-10-23T04:24:22;23.73;;;17.38;;
40781;SDS011;26493;51.938;7.626;2022-10-23T04:26:48;24.58;;;18.33;;
40781;SDS011;26493;51.938;7.626;2022-10-23T04:29:14;35.35;;;18.27;;
40781;SDS011;26493;51.938;7.626;2022-10-23T04:31:40;25.95;;;17.67;;
40781;SDS011;26493;51.938;7.626;2022-10-23T04:34:06;25.92;;;17.52;;
40781;SDS011;26493;51.938;7.626;2022-10-23T04:36:32;25.88;;;17.92;;
40781;SDS011;26493;51.938;7.626;2022-10-23T04:38:58;31.98;;;17.88;;
40781;SDS011;26493;51.938;7.626;2022-10-23T04:41:24;29.95;;;18.33;;
40781;SDS011;26493;51.938;7.626;2022-10-23T04:43:50;28.63;;;18.27;;
40781;SDS011;26493;51.938;7.626;2022-10-23T04:46:16;33.92;;;19.52;;
40781;SDS011;26493;51.938;7.626;2022-10-23T04:48:42;25.90;;;18.20;;
40781;SDS011;26493;51.938;7.626;2022-10-23T04:51:08;28.02;;;18.70;;
40781;SDS011;26493;51.938;7.626;2022-10-23T04:53:34;27.25;;;18.98;;
40781;SDS011;26493;51.938;7.626;2022-10-23T04:56:02;26.02;;;17.85;;
40781;SDS011;26493;51.938;7.626;2022-10-23T04:58:28;32.80;;;23.05;;
40781;SDS011;26493;51.938;7.626;2022-10-23T05:00:55;41.35;;;27.02;;
40781;SDS011;26493;51.938;7.626;2022-10-23T05:03:21;36.80;;;24.85;;
40781;SDS011;26493;51.938;7.626;2022-10-23T05:05:48;34.38;;;22.67;;
40781;SDS011;26493;51.938;7.626;2022-10-23T05:08:16;33.50;;;19.92;;
40781;SDS011;26493;51.938;7.626;2022-10-23T05:10:42;30.05;;;19.33;;
40781;SDS011;26493;51.938;7.626;2022-10-23T05:13:08;26.35;;;18.05;;
40781;SDS011;26493;51.938;7.626;2022-10-23T05:15:34;27.50;;;17.48;;
40781;SDS011;26493;51.938;7.626;2022-10-23T05:18:06;25.80;;;16.73;;
40781;SDS011;26493;51.938;7.626;2022-10-23T05:20:34;23.67;;;16.85;;
40781;SDS011;26493;51.938;7.626;2022-10-23T05:23:01;27.08;;;16.38;;
40781;SDS011;26493;51.938;7.626;2022-10-23T05:25:28;25.85;;;17.95;;
40781;SDS011;26493;51.938;7.626;2022-10-23T05:27:55;30.10;;;17.83;;
40781;SDS011;26493;51.938;7.626;2022-10-23T05:30:21;27.25;;;17.65;;
40781;SDS011;26493;51.938;7.626;2022-10-23T05:32:47;24.75;;;16.73;;
40781;SDS011;26493;51.938;7.626;2022-10-23T05:35:15;29.92;;;18.02;;
40781;SDS011;26493;51.938;7.626;2022-10-23T05:37:42;26.52;;;16.80;;
40781;SDS011;26493;51.938;7.626;2022-10-23T05:40:10;27.53;;;19.53;;
40781;SDS011;26493;51.938;7.626;2022-10-23T05:42:36;23.65;;;17.98;;
40781;SDS011;26493;51.938;7.626;2022-10-23T05:45:02;25.42;;;17.55;;
40781;SDS011;26493;51.938;7.626;2022-10-23T05:47:28;26.00;;;17.17;;
40781;SDS011;26493;51.938;7.626;2022-10-23T05:49:55;27.38;;;16.80;;
40781;SDS011;26493;51.938;7.626;2022-10-23T05:52:21;28.13;;;19.58;;
40781;SDS011;26493;51.938;7.626;2022-10-23T05:54:49;26.75;;;17.33;;
40781;SDS011;26493;51.938;7.626;2022-10-23T05:57:16;26.33;;;17.02;;
40781;SDS011;26493;51.938;7.626;2022-10-23T05:59:42;26.58;;;17.20;;
40781;SDS011;26493;51.938;7.626;2022-10-23T06:02:08;27.10;;;17.42;;
40781;SDS011;26493;51.938;7.626;2022-10-23T06:04:34;24.02;;;16.73;;
40781;SDS011;26493;51.938;7.626;2022-10-23T06:07:01;28.20;;;17.73;;
40781;SDS011;26493;51.938;7.626;2022-10-23T06:09:28;25.08;;;17.33;;
40781;SDS011;26493;51.938;7.626;2022-10-23T06:11:54;27.50;;;16.83;;
40781;SDS011;26493;51.938;7.626;2022-10-23T06:14:20;28.13;;;18.08;;
40781;SDS011;26493;51.938;7.626;2022-10-23T06:16:46;29.58;;;17.58;;
40781;SDS011;26493;51.938;7.626;2022-10-23T06:19:12;30.08;;;19.33;;
40781;SDS011;26493;51.938;7.626;2022-10-23T06:21:38;33.45;;;20.17;;
40781;SDS011;26493;51.938;7.626;2022-10-23T06:24:05;28.10;;;18.33;;
40781;SDS011;26493;51.938;7.626;2022-10-23T06:26:31;26.55;;;18.98;;
40781;SDS011;26493;51.938;7.626;2022-10-23T06:28:57;27.30;;;18.58;;
40781;SDS011;26493;51.938;7.626;2022-10-23T06:31:23;24.02;;;17.98;;
40781;SDS011;26493;51.938;7.626;2022-10-23T06:33:53;24.35;;;18.00;;
40781;SDS011;26493;51.938;7.626;2022-10-23T06:36:19;25.13;;;17.92;;
40781;SDS011;26493;51.938;7.626;2022-10-23T06:38:45;25.80;;;17.88;;
40781;SDS011;26493;51.938;7.626;2022-10-23T06:41:14;28.20;;;17.85;;
40781;SDS011;26493;51.938;7.626;2022-10-23T06:43:40;24.20;;;17.33;;
40781;SDS011;26493;51.938;7.626;2022-10-23T06:46:06;28.23;;;18.60;;
40781;SDS011;26493;51.938;7.626;2022-10-23T06:48:32;25.33;;;17.23;;
40781;SDS011;26493;51.938;7.626;2022-10-23T06:50:58;27.77;;;17.48;;
40781;SDS011;26493;51.938;7.626;2022-10-23T06:53:28;28.17;;;18.48;;
40781;SDS011;26493;51.938;7.626;2022-10-23T06:55:58;32.72;;;19.40;;
40781;SDS011;26493;51.938;7.626;2022-10-23T06:58:24;26.75;;;17.85;;
40781;SDS011;26493;51.938;7.626;2022-10-23T07:00:50;25.58;;;17.63;;
40781;SDS011;26493;51.938;7.626;2022-10-23T07:03:16;24.95;;;17.48;;
40781;SDS011;26493;51.938;7.626;2022-10-23T07:05:42;28.08;;;18.90;;
40781;SDS011;26493;51.938;7.626;2022-10-23T07:08:11;24.33;;;19.45;;
40781;SDS011;26493;51.938;7.626;2022-10-23T07:10:38;25.98;;;19.05;;
40781;SDS011;26493;51.938;7.626;2022-10-23T07:13:08;26.90;;;18.98;;
40781;SDS011;26493;51.938;7.626;2022-10-23T07:15:34;23.33;;;17.17;;
40781;SDS011;26493;51.938;7.626;2022-10-23T07:18:00;24.58;;;17.30;;
40781;SDS011;26493;51.938;7.626;2022-10-23T07:20:26;27.00;;;17.42;;
40781;SDS011;26493;51.938;7.626;2022-10-23T07:22:53;23.98;;;16.50;;
40781;SDS011;26493;51.938;7.626;2022-10-23T07:25:20;24.35;;;17.15;;
40781;SDS011;26493;51.938;7.626;2022-10-23T07:27:46;22.95;;;16.27;;
40781;SDS011;26493;51.938;7.626;2022-10-23T07:30:12;23.83;;;15.90;;
40781;SDS011;26493;51.938;7.626;2022-10-23T07:32:39;21.50;;;14.85;;
40781;SDS011;26493;51.938;7.626;2022-10-23T07:35:05;23.52;;;14.82;;
40781;SDS011;26493;51.938;7.626;2022-10-23T07:37:31;23.75;;;15.25;;
40781;SDS011;26493;51.938;7.626;2022-10-23T07:39:57;22.98;;;15.18;;
40781;SDS011;26493;51.938;7.626;2022-10-23T07:42:23;23.42;;;15.00;;
40781;SDS011;26493;51.938;7.626;2022-10-23T07:44:49;31.80;;;23.30;;
40781;SDS011;26493;51.938;7.626;2022-10-23T07:47:15;23.30;;;14.38;;
40781;SDS011;26493;51.938;7.626;2022-10-23T07:49:41;23.08;;;14.45;;
40781;SDS011;26493;51.938;7.626;2022-10-23T07:52:09;25.17;;;14.07;;
40781;SDS011;26493;51.938;7.626;2022-10-23T07:54:35;23.93;;;15.43;;
40781;SDS011;26493;51.938;7.626;2022-10-23T07:57:01;20.55;;;13.55;;
40781;SDS011;26493;51.938;7.626;2022-10-23T07:59:27;21.63;;;12.57;;
40781;SDS011;26493;51.938;7.626;2022-10-23T08:01:53;23.35;;;13.82;;
40781;SDS011;26493;51.938;7.626;2022-10-23T08:04:20;24.40;;;12.75;;
40781;SDS011;26493;51.938;7.626;2022-10-23T08:06:47;22.60;;;13.25;;
40781;SDS011;26493;51.938;7.626;2022-10-23T08:09:13;20.90;;;13.52;;
40781;SDS011;26493;51.938;7.626;2022-10-23T08:11:39;20.80;;;13.07;;
40781;SDS011;26493;51.938;7.626;2022-10-23T08:14:05;20.23;;;12.82;;
40781;SDS011;26493;51.938;7.626;2022-10-23T08:16:33;24.55;;;13.10;;
40781;SDS011;26493;51.938;7.626;2022-10-23T08:18:59;21.05;;;12.60;;
40781;SDS011;26493;51.938;7.626;2022-10-23T08:21:25;22.20;;;12.93;;
40781;SDS011;26493;51.938;7.626;2022-10-23T08:23:54;20.13;;;12.00;;
40781;SDS011;26493;51.938;7.626;2022-10-23T08:26:21;19.95;;;12.27;;
40781;SDS011;26493;51.938;7.626;2022-10-23T08:28:47;19.23;;;12.48;;
40781;SDS011;26493;51.938;7.626;2022-10-23T08:31:14;21.30;;;13.23;;
40781;SDS011;26493;51.938;7.626;2022-10-23T08:33:40;25.85;;;13.57;;
40781;SDS011;26493;51.938;7.626;2022-10-23T08:36:17;22.23;;;12.82;;
40781;SDS011;26493;51.938;7.626;2022-10-23T08:38:43;24.05;;;14.00;;
40781;SDS011;26493;51.938;7.626;2022-10-23T08:41:28;20.67;;;11.98;;
40781;SDS011;26493;51.938;7.626;2022-10-23T08:46:43;21.00;;;12.02;;
40781;SDS011;26493;51.938;7.626;2022-10-23T08:49:29;19.10;;;11.25;;
40781;SDS011;26493;51.938;7.626;2022-10-23T08:51:59;19.10;;;11.48;;
40781;SDS011;26493;51.938;7.626;2022-10-23T08:56:57;19.30;;;11.32;;
40781;SDS011;26493;51.938;7.626;2022-10-23T09:01:57;17.92;;;10.55;;
40781;SDS011;26493;51.938;7.626;2022-10-23T09:04:24;18.13;;;10.70;;
40781;SDS011;26493;51.938;7.626;2022-10-23T09:09:32;19.15;;;10.63;;
40781;SDS011;26493;51.938;7.626;2022-10-23T09:19:42;18.02;;;9.88;;
40781;SDS011;26493;51.938;7.626;2022-10-23T09:22:09;22.17;;;11.10;;
40781;SDS011;26493;51.938;7.626;2022-10-23T09:24:36;20.10;;;10.60;;
40781;SDS011;26493;51.938;7.626;2022-10-23T09:27:02;18.88;;;10.18;;
40781;SDS011;26493;51.938;7.626;2022-10-23T09:29:31;17.25;;;9.27;;
40781;SDS011;26493;51.938;7.626;2022-10-23T09:32:00;20.60;;;11.40;;
40781;SDS011;26493;51.938;7.626;2022-10-23T09:34:27;17.00;;;9.32;;
40781;SDS011;26493;51.938;7.626;2022-10-23T09:36:54;20.63;;;11.77;;
40781;SDS011;26493;51.938;7.626;2022-10-23T09:39:22;17.45;;;10.10;;
40781;SDS011;26493;51.938;7.626;2022-10-23T09:41:49;19.53;;;9.63;;
40781;SDS011;26493;51.938;7.626;2022-10-23T09:47:10;21.30;;;9.98;;
40781;SDS011;26493;51.938;7.626;2022-10-23T09:49:37;16.27;;;8.93;;
40781;SDS011;26493;51.938;7.626;2022-10-23T09:52:05;19.55;;;10.35;;
40781;SDS011;26493;51.938;7.626;2022-10-23T09:54:48;19.85;;;10.35;;
40781;SDS011;26493;51.938;7.626;2022-10-23T09:59:54;22.23;;;10.95;;
40781;SDS011;26493;51.938;7.626;2022-10-23T10:04:50;24.65;;;16.52;;
40781;SDS011;26493;51.938;7.626;2022-10-23T10:07:18;20.10;;;10.13;;
40781;SDS011;26493;51.938;7.626;2022-10-23T10:09:44;19.10;;;10.20;;
40781;SDS011;26493;51.938;7.626;2022-10-23T10:15:17;18.58;;;9.68;;
40781;SDS011;26493;51.938;7.626;2022-10-23T10:22:48;18.77;;;9.05;;
40781;SDS011;26493;51.938;7.626;2022-10-23T10:30:54;21.33;;;9.18;;
40781;SDS011;26493;51.938;7.626;2022-10-23T10:38:58;24.38;;;15.88;;
40781;SDS011;26493;51.938;7.626;2022-10-23T10:46:15;17.60;;;9.52;;
40781;SDS011;26493;51.938;7.626;2022-10-23T10:56:33;18.30;;;9.55;;
40781;SDS011;26493;51.938;7.626;2022-10-23T10:59:03;24.95;;;14.80;;
40781;SDS011;26493;51.938;7.626;2022-10-23T11:01:41;15.90;;;8.63;;
40781;SDS011;26493;51.938;7.626;2022-10-23T11:06:35;16.92;;;8.10;;
40781;SDS011;26493;51.938;7.626;2022-10-23T11:09:10;20.15;;;12.43;;
40781;SDS011;26493;51.938;7.626;2022-10-23T11:11:39;17.58;;;8.80;;
40781;SDS011;26493;51.938;7.626;2022-10-23T11:14:06;17.92;;;8.48;;
40781;SDS011;26493;51.938;7.626;2022-10-23T11:16:39;20.65;;;8.27;;
40781;SDS011;26493;51.938;7.626;2022-10-23T11:21:36;14.93;;;8.00;;
40781;SDS011;26493;51.938;7.626;2022-10-23T11:26:33;18.17;;;8.35;;
40781;SDS011;26493;51.938;7.626;2022-10-23T11:31:35;16.10;;;8.35;;
40781;SDS011;26493;51.938;7.626;2022-10-23T11:36:45;19.27;;;8.15;;
40781;SDS011;26493;51.938;7.626;2022-10-23T11:39:18;16.42;;;8.27;;
40781;SDS011;26493;51.938;7.626;2022-10-23T11:44:27;19.20;;;8.05;;
40781;SDS011;26493;51.938;7.626;2022-10-23T11:47:04;19.98;;;7.82;;
40781;SDS011;26493;51.938;7.626;2022-10-23T11:49:31;16.25;;;8.52;;
40781;SDS011;26493;51.938;7.626;2022-10-23T11:52:03;16.95;;;8.13;;
40781;SDS011;26493;51.938;7.626;2022-10-23T11:54:30;16.50;;;8.52;;
40781;SDS011;26493;51.938;7.626;2022-10-23T11:59:35;15.73;;;8.27;;
40781;SDS011;26493;51.938;7.626;2022-10-23T12:02:08;16.52;;;7.97;;
40781;SDS011;26493;51.938;7.626;2022-10-23T12:04:48;17.83;;;8.55;;
40781;SDS011;26493;51.938;7.626;2022-10-23T12:07:22;16.80;;;8.00;;
40781;SDS011;26493;51.938;7.626;2022-10-23T12:09:53;15.80;;;7.55;;
40781;SDS011;26493;51.938;7.626;2022-10-23T12:12:33;17.17;;;7.80;;
40781;SDS011;26493;51.938;7.626;2022-10-23T12:17:40;17.25;;;9.02;;
40781;SDS011;26493;51.938;7.626;2022-10-23T12:22:37;17.83;;;7.95;;
40781;SDS011;26493;51.938;7.626;2022-10-23T12:35:52;15.20;;;8.20;;
40781;SDS011;26493;51.938;7.626;2022-10-23T12:38:22;19.50;;;8.30;;
40781;SDS011;26493;51.938;7.626;2022-10-23T12:43:33;16.35;;;8.35;;
40781;SDS011;26493;51.938;7.626;2022-10-23T12:46:04;20.08;;;9.50;;
40781;SDS011;26493;51.938;7.626;2022-10-23T12:48:32;17.27;;;8.80;;
40781;SDS011;26493;51.938;7.626;2022-10-23T12:50:58;18.33;;;8.93;;
40781;SDS011;26493;51.938;7.626;2022-10-23T12:53:24;15.73;;;8.38;;
40781;SDS011;26493;51.938;7.626;2022-10-23T12:58:27;16.02;;;7.93;;
40781;SDS011;26493;51.938;7.626;2022-10-23T13:00:57;17.58;;;8.35;;
40781;SDS011;26493;51.938;7.626;2022-10-23T13:03:24;16.25;;;8.63;;
40781;SDS011;26493;51.938;7.626;2022-10-23T13:05:51;19.23;;;9.13;;
40781;SDS011;26493;51.938;7.626;2022-10-23T13:08:19;16.95;;;8.50;;
40781;SDS011;26493;51.938;7.626;2022-10-23T13:10:48;16.15;;;8.20;;
40781;SDS011;26493;51.938;7.626;2022-10-23T13:13:16;15.63;;;8.27;;
40781;SDS011;26493;51.938;7.626;2022-10-23T13:15:44;17.63;;;8.80;;
40781;SDS011;26493;51.938;7.626;2022-10-23T13:18:11;17.23;;;9.10;;
40781;SDS011;26493;51.938;7.626;2022-10-23T13:20:42;16.63;;;9.27;;
40781;SDS011;26493;51.938;7.626;2022-10-23T13:25:37;15.73;;;8.15;;
40781;SDS011;26493;51.938;7.626;2022-10-23T13:30:34;16.25;;;8.35;;
40781;SDS011;26493;51.938;7.626;2022-10-23T13:33:12;16.08;;;8.00;;
40781;SDS011;26493;51.938;7.626;2022-10-23T13:35:38;18.52;;;8.30;;
40781;SDS011;26493;51.938;7.626;2022-10-23T13:38:07;19.35;;;8.95;;
40781;SDS011;26493;51.938;7.626;2022-10-23T13:40:33;19.38;;;9.32;;
40781;SDS011;26493;51.938;7.626;2022-10-23T13:43:00;19.30;;;9.40;;
40781;SDS011;26493;51.938;7.626;2022-10-23T13:45:26;15.73;;;9.60;;
40781;SDS011;26493;51.938;7.626;2022-10-23T13:47:52;17.23;;;9.35;;
40781;SDS011;26493;51.938;7.626;2022-10-23T13:50:18;16.48;;;10.57;;
40781;SDS011;26493;51.938;7.626;2022-10-23T13:52:44;17.35;;;9.52;;
40781;SDS011;26493;51.938;7.626;2022-10-23T13:55:16;16.92;;;9.25;;
40781;SDS011;26493;51.938;7.626;2022-10-23T13:57:43;15.90;;;8.90;;
40781;SDS011;26493;51.938;7.626;2022-10-23T14:00:09;17.58;;;9.73;;
40781;SDS011;26493;51.938;7.626;2022-10-23T14:02:35;23.10;;;10.60;;
40781;SDS011;26493;51.938;7.626;2022-10-23T14:05:01;20.23;;;10.43;;
40781;SDS011;26493;51.938;7.626;2022-10-23T14:07:27;20.33;;;10.98;;
40781;SDS011;26493;51.938;7.626;2022-10-23T14:09:53;17.35;;;9.80;;
40781;SDS011;26493;51.938;7.626;2022-10-23T14:12:19;17.60;;;10.07;;
40781;SDS011;26493;51.938;7.626;2022-10-23T14:14:49;17.95;;;9.43;;
40781;SDS011;26493;51.938;7.626;2022-10-23T14:17:15;17.55;;;10.27;;
40781;SDS011;26493;51.938;7.626;2022-10-23T14:19:41;21.75;;;11.85;;
40781;SDS011;26493;51.938;7.626;2022-10-23T14:22:07;18.20;;;9.90;;
40781;SDS011;26493;51.938;7.626;2022-10-23T14:24:33;21.20;;;11.90;;
40781;SDS011;26493;51.938;7.626;2022-10-23T14:26:59;18.50;;;10.52;;
40781;SDS011;26493;51.938;7.626;2022-10-23T14:29:25;19.95;;;11.95;;
40781;SDS011;26493;51.938;7.626;2022-10-23T14:31:51;18.63;;;10.82;;
40781;SDS011;26493;51.938;7.626;2022-10-23T14:34:17;22.55;;;13.18;;
40781;SDS011;26493;51.938;7.626;2022-10-23T14:36:43;22.85;;;11.65;;
40781;SDS011;26493;51.938;7.626;2022-10-23T14:39:09;23.42;;;11.77;;
40781;SDS011;26493;51.938;7.626;2022-10-23T14:41:35;23.38;;;11.18;;
40781;SDS011;26493;51.938;7.626;2022-10-23T14:44:04;23.88;;;12.20;;
40781;SDS011;26493;51.938;7.626;2022-10-23T14:46:30;23.50;;;12.02;;
40781;SDS011;26493;51.938;7.626;2022-10-23T14:48:56;21.85;;;11.30;;
40781;SDS011;26493;51.938;7.626;2022-10-23T14:51:23;24.38;;;13.20;;
40781;SDS011;26493;51.938;7.626;2022-10-23T14:53:54;22.60;;;12.18;;
40781;SDS011;26493;51.938;7.626;2022-10-23T14:56:20;23.33;;;12.43;;
40781;SDS011;26493;51.938;7.626;2022-10-23T14:58:47;24.30;;;13.90;;
40781;SDS011;26493;51.938;7.626;2022-10-23T15:01:13;21.02;;;13.27;;
40781;SDS011;26493;51.938;7.626;2022-10-23T15:03:39;21.45;;;12.20;;
40781;SDS011;26493;51.938;7.626;2022-10-23T15:06:06;25.45;;;11.80;;
40781;SDS011;26493;51.938;7.626;2022-10-23T15:08:33;18.05;;;10.77;;
40781;SDS011;26493;51.938;7.626;2022-10-23T15:11:00;17.42;;;9.15;;
40781;SDS011;26493;51.938;7.626;2022-10-23T15:13:26;20.08;;;9.20;;
40781;SDS011;26493;51.938;7.626;2022-10-23T15:16:02;20.85;;;9.38;;
40781;SDS011;26493;51.938;7.626;2022-10-23T15:18:28;22.95;;;9.95;;
40781;SDS011;26493;51.938;7.626;2022-10-23T15:20:54;19.05;;;10.45;;
40781;SDS011;26493;51.938;7.626;2022-10-23T15:23:20;17.05;;;8.50;;
40781;SDS011;26493;51.938;7.626;2022-10-23T15:25:53;16.35;;;8.48;;
40781;SDS011;26493;51.938;7.626;2022-10-23T15:28:19;16.55;;;8.88;;
40781;SDS011;26493;51.938;7.626;2022-10-23T15:30:45;19.00;;;8.45;;
40781;SDS011;26493;51.938;7.626;2022-10-23T15:33:11;23.73;;;8.30;;
40781;SDS011;26493;51.938;7.626;2022-10-23T15:35:37;14.93;;;7.75;;
40781;SDS011;26493;51.938;7.626;2022-10-23T15:38:03;18.30;;;8.48;;
40781;SDS011;26493;51.938;7.626;2022-10-23T15:40:29;17.90;;;8.80;;
40781;SDS011;26493;51.938;7.626;2022-10-23T15:42:55;17.45;;;8.45;;
40781;SDS011;26493;51.938;7.626;2022-10-23T15:45:21;20.63;;;10.77;;
40781;SDS011;26493;51.938;7.626;2022-10-23T15:47:47;22.63;;;12.73;;
40781;SDS011;26493;51.938;7.626;2022-10-23T15:50:14;23.48;;;13.85;;
40781;SDS011;26493;51.938;7.626;2022-10-23T15:52:41;24.38;;;13.45;;
40781;SDS011;26493;51.938;7.626;2022-10-23T15:55:07;23.95;;;12.90;;
40781;SDS011;26493;51.938;7.626;2022-10-23T15:57:39;22.20;;;11.43;;
40781;SDS011;26493;51.938;7.626;2022-10-23T16:00:06;20.92;;;10.32;;
40781;SDS011;26493;51.938;7.626;2022-10-23T16:02:33;19.90;;;9.77;;
40781;SDS011;26493;51.938;7.626;2022-10-23T16:04:59;17.65;;;8.43;;
40781;SDS011;26493;51.938;7.626;2022-10-23T16:07:25;17.80;;;8.40;;
40781;SDS011;26493;51.938;7.626;2022-10-23T16:09:51;15.20;;;7.25;;
40781;SDS011;26493;51.938;7.626;2022-10-23T16:12:17;15.18;;;7.78;;
40781;SDS011;26493;51.938;7.626;2022-10-23T16:14:43;23.42;;;8.48;;
40781;SDS011;26493;51.938;7.626;2022-10-23T16:17:09;16.50;;;8.27;;
40781;SDS011;26493;51.938;7.626;2022-10-23T16:19:37;22.95;;;9.73;;
40781;SDS011;26493;51.938;7.626;2022-10-23T16:22:05;16.40;;;7.63;;
40781;SDS011;26493;51.938;7.626;2022-10-23T16:24:31;17.48;;;8.13;;
40781;SDS011;26493;51.938;7.626;2022-10-23T16:26:57;22.88;;;8.32;;
40781;SDS011;26493;51.938;7.626;2022-10-23T16:29:24;16.77;;;8.00;;
40781;SDS011;26493;51.938;7.626;2022-10-23T16:31:51;20.48;;;9.10;;
40781;SDS011;26493;51.938;7.626;2022-10-23T16:34:17;19.10;;;9.20;;
40781;SDS011;26493;51.938;7.626;2022-10-23T16:36:43;19.42;;;10.55;;
40781;SDS011;26493;51.938;7.626;2022-10-23T16:39:10;21.35;;;8.18;;
40781;SDS011;26493;51.938;7.626;2022-10-23T16:41:36;17.70;;;8.68;;
40781;SDS011;26493;51.938;7.626;2022-10-23T16:44:03;18.17;;;8.93;;
40781;SDS011;26493;51.938;7.626;2022-10-23T16:46:29;21.23;;;10.40;;